createdAt,value
2018-06-28T00:02:20.916Z,97.10
2018-06-28T00:05:19.109Z,98.00
2018-06-28T00:08:17.051Z,97.60
2018-06-28T00:11:14.939Z,97.40
2018-06-28T00:14:13.020Z,97.30
2018-06-28T00:17:10.486Z,97.60
2018-06-28T00:20:09.462Z,97.60
2018-06-28T00:23:06.596Z,97.90
2018-06-28T00:26:03.941Z,97.90
2018-06-28T00:29:01.278Z,97.90
2018-06-28T00:31:58.778Z,97.80
2018-06-28T00:34:56.098Z,98.00
2018-06-28T00:40:43.739Z,98.30
2018-06-28T00:43:41.071Z,98.20
2018-06-28T00:46:38.423Z,98.00
2018-06-28T00:49:36.115Z,98.00
2018-06-28T00:52:33.579Z,98.10
2018-06-28T00:55:31.639Z,98.10
2018-06-28T00:58:29.198Z,98.60
2018-06-28T01:01:26.520Z,98.50
2018-06-28T01:04:24.622Z,98.90
2018-06-28T01:07:23.670Z,99.00
2018-06-28T01:10:22.135Z,99.40
2018-06-28T01:13:19.799Z,99.30
2018-06-28T01:16:17.127Z,99.40
2018-06-28T01:19:16.249Z,99.50
2018-06-28T01:22:13.806Z,99.60
2018-06-28T01:25:11.155Z,99.80
2018-06-28T01:28:08.337Z,99.90
2018-06-28T01:31:05.628Z,99.80
2018-06-28T01:34:02.933Z,99.80
2018-06-28T01:37:00.946Z,99.90
2018-06-28T01:39:58.397Z,99.90
2018-06-28T01:43:07.721Z,99.90
2018-06-28T01:46:05.231Z,99.70
2018-06-28T01:49:03.331Z,99.60
2018-06-28T01:52:01.243Z,99.80
2018-06-28T01:57:49.801Z,99.90
2018-06-28T02:00:48.988Z,99.90
2018-06-28T02:03:46.449Z,99.90
2018-06-28T02:06:43.870Z,99.90
2018-06-28T02:09:41.127Z,99.90
2018-06-28T02:12:38.755Z,99.90
2018-06-28T02:15:36.149Z,99.90
2018-06-28T02:18:34.396Z,99.90
2018-06-28T02:21:31.547Z,99.90
2018-06-28T02:24:28.988Z,99.90
2018-06-28T02:27:26.115Z,99.90
2018-06-28T02:30:23.384Z,99.90
2018-06-28T02:33:21.486Z,99.90
2018-06-28T02:36:19.092Z,99.90
2018-06-28T02:39:17.203Z,99.90
2018-06-28T02:42:15.310Z,99.90
2018-06-28T02:45:28.427Z,99.90
2018-06-28T02:48:25.719Z,99.90
2018-06-28T02:51:23.139Z,99.90
2018-06-28T02:54:20.423Z,99.90
2018-06-28T02:57:17.896Z,99.90
2018-06-28T03:00:15.429Z,99.90
2018-06-28T03:03:13.430Z,99.90
2018-06-28T03:06:11.520Z,99.90
2018-06-28T03:09:08.820Z,99.90
2018-06-28T03:12:06.093Z,99.90
2018-06-28T03:15:04.220Z,99.90
2018-06-28T03:18:01.500Z,99.90
2018-06-28T03:20:58.683Z,99.90
2018-06-28T03:23:56.047Z,99.90
2018-06-28T03:26:53.507Z,99.90
2018-06-28T03:29:51.811Z,99.90
2018-06-28T03:32:49.908Z,99.90
2018-06-28T03:35:47.962Z,99.90
2018-06-28T03:38:46.040Z,99.90
2018-06-28T03:41:43.296Z,99.90
2018-06-28T03:44:41.498Z,99.90
2018-06-28T03:47:39.656Z,99.90
2018-06-28T03:50:36.939Z,99.90
2018-06-28T03:53:34.259Z,99.90
2018-06-28T03:56:32.476Z,99.90
2018-06-28T03:59:30.514Z,99.90
2018-06-28T04:02:27.952Z,99.90
2018-06-28T04:05:25.268Z,99.90
2018-06-28T04:08:22.803Z,99.90
2018-06-28T04:11:20.142Z,99.90
2018-06-28T04:14:17.743Z,99.90
2018-06-28T04:17:15.482Z,99.90
2018-06-28T04:20:13.012Z,99.90
2018-06-28T04:23:10.443Z,99.90
2018-06-28T04:26:07.787Z,99.90
2018-06-28T04:29:05.097Z,99.90
2018-06-28T04:32:02.566Z,99.70
2018-06-28T04:35:00.274Z,99.80
2018-06-28T04:37:58.397Z,99.80
2018-06-28T04:40:56.049Z,99.60
2018-06-28T04:43:53.415Z,99.50
2018-06-28T04:46:50.648Z,99.10
2018-06-28T04:49:47.903Z,98.80
2018-06-28T04:52:45.764Z,98.20
2018-06-28T04:55:43.766Z,98.20
2018-06-28T04:58:41.126Z,97.90
2018-06-28T05:01:38.415Z,97.80
2018-06-28T05:04:35.926Z,97.70
2018-06-28T05:07:34.102Z,97.70
2018-06-28T05:10:32.278Z,97.70
2018-06-28T05:13:29.655Z,97.80
2018-06-28T05:16:26.905Z,97.60
2018-06-28T05:19:24.238Z,97.50
2018-06-28T05:22:22.428Z,97.40
2018-06-28T05:25:19.738Z,97.40
2018-06-28T05:28:16.962Z,97.00
2018-06-28T05:31:14.439Z,96.90
2018-06-28T05:34:11.652Z,96.70
2018-06-28T05:37:09.762Z,96.60
2018-06-28T05:40:06.999Z,96.50
2018-06-28T05:43:04.593Z,96.40
2018-06-28T05:46:01.795Z,96.30
2018-06-28T05:48:59.223Z,96.20
2018-06-28T05:51:56.522Z,96.00
2018-06-28T05:54:54.567Z,95.80
2018-06-28T05:57:51.729Z,95.50
2018-06-28T06:00:48.947Z,95.50
2018-06-28T06:06:36.434Z,94.80
2018-06-28T06:09:34.479Z,94.60
2018-06-28T06:12:31.871Z,94.60
2018-06-28T06:15:29.920Z,94.30
2018-06-28T06:18:28.078Z,94.10
2018-06-28T06:21:25.947Z,94.20
2018-06-28T06:24:23.376Z,94.10
2018-06-28T06:27:20.682Z,94.00
2018-06-28T06:30:20.366Z,93.80
2018-06-28T06:33:18.527Z,93.90
2018-06-28T06:36:16.076Z,93.50
2018-06-28T06:39:13.365Z,93.20
2018-06-28T06:42:11.356Z,92.80
2018-06-28T06:45:08.464Z,92.20
2018-06-28T06:48:06.583Z,91.60
2018-06-28T06:51:03.865Z,91.40
2018-06-28T06:54:01.855Z,91.20
2018-06-28T06:56:59.133Z,90.70
2018-06-28T06:59:56.328Z,90.60
2018-06-28T07:02:53.627Z,90.30
2018-06-28T07:05:50.944Z,86.80
2018-06-28T07:08:49.107Z,82.20
2018-06-28T07:11:47.040Z,74.40
2018-06-28T07:14:44.280Z,69.50
2018-06-28T07:17:42.283Z,68.80
2018-06-28T07:22:54.653Z,65.20
2018-06-28T07:25:52.385Z,65.10
2018-06-28T07:28:50.262Z,63.60
2018-06-28T07:31:47.901Z,64.10
2018-06-28T07:34:45.835Z,65.90
2018-06-28T07:37:43.514Z,63.80
2018-06-28T07:40:41.154Z,60.00
2018-06-28T07:43:38.747Z,58.80
2018-06-28T07:46:36.467Z,57.40
2018-06-28T07:49:34.300Z,57.90
2018-06-28T07:52:32.084Z,57.60
2018-06-28T07:55:29.773Z,57.30
2018-06-28T07:58:27.559Z,56.50
2018-06-28T08:01:25.233Z,56.00
2018-06-28T08:04:23.237Z,55.70
2018-06-28T08:07:20.947Z,56.00
2018-06-28T08:10:18.872Z,54.50
2018-06-28T08:13:16.656Z,52.60
2018-06-28T08:16:14.312Z,52.80
2018-06-28T08:19:12.009Z,53.20
2018-06-28T08:22:09.927Z,53.00
2018-06-28T08:25:07.877Z,52.20
2018-06-28T08:28:05.831Z,51.90
2018-06-28T08:31:03.629Z,52.00
2018-06-28T08:34:01.348Z,52.50
2018-06-28T08:37:00.292Z,52.90
2018-06-28T08:39:58.152Z,53.50
2018-06-28T08:42:56.224Z,53.90
2018-06-28T08:45:53.715Z,53.20
2018-06-28T08:48:51.550Z,51.90
2018-06-28T08:51:49.528Z,51.20
2018-06-28T08:54:47.376Z,51.20
2018-06-28T08:57:45.074Z,50.10
2018-06-28T09:00:42.671Z,49.40
2018-06-28T09:03:40.396Z,49.50
2018-06-28T09:06:38.348Z,50.10
2018-06-28T09:09:36.002Z,49.10
2018-06-28T09:12:33.843Z,50.30
2018-06-28T09:15:31.377Z,51.40
2018-06-28T09:18:29.152Z,51.50
2018-06-28T09:21:26.981Z,49.70
2018-06-28T09:24:24.522Z,50.40
2018-06-28T09:27:22.266Z,50.60
2018-06-28T09:30:21.059Z,50.80
2018-06-28T09:33:18.716Z,51.10
2018-06-28T09:36:17.433Z,51.80
2018-06-28T09:39:15.292Z,51.30
2018-06-28T09:42:13.125Z,50.90
2018-06-28T09:45:11.040Z,50.00
2018-06-28T09:50:58.781Z,48.30
2018-06-28T09:53:57.022Z,48.20
2018-06-28T09:56:54.809Z,49.00
2018-06-28T09:59:52.479Z,48.90
2018-06-28T10:02:50.454Z,47.70
2018-06-28T10:05:48.261Z,47.70
2018-06-28T10:08:46.175Z,47.50
2018-06-28T10:11:44.198Z,47.70
2018-06-28T10:14:41.833Z,48.00
2018-06-28T10:17:39.605Z,47.60
2018-06-28T10:20:37.718Z,47.70
2018-06-28T10:23:35.432Z,47.30
2018-06-28T10:26:33.378Z,46.90
2018-06-28T10:29:31.099Z,47.40
2018-06-28T10:32:29.079Z,47.50
2018-06-28T10:35:26.747Z,46.90
2018-06-28T10:38:24.709Z,46.80
2018-06-28T10:41:22.256Z,46.90
2018-06-28T10:44:19.941Z,46.80
2018-06-28T10:47:17.786Z,45.00
2018-06-28T10:50:15.481Z,45.40
2018-06-28T10:53:13.487Z,45.70
2018-06-28T10:56:11.144Z,45.80
2018-06-28T10:59:08.736Z,45.60
2018-06-28T11:02:06.468Z,44.80
2018-06-28T11:05:04.369Z,44.60
2018-06-28T11:08:02.159Z,43.90
2018-06-28T11:10:59.715Z,44.00
2018-06-28T11:13:57.519Z,44.10
2018-06-28T11:16:55.131Z,44.00
2018-06-28T11:19:52.987Z,43.60
2018-06-28T11:22:50.602Z,43.60
2018-06-28T11:25:48.189Z,43.30
2018-06-28T11:28:46.198Z,43.40
2018-06-28T11:31:44.224Z,43.90
2018-06-28T11:34:41.920Z,43.90
2018-06-28T11:37:39.463Z,43.70
2018-06-28T11:40:37.172Z,43.40
2018-06-28T11:43:35.138Z,43.90
2018-06-28T11:46:32.851Z,44.50
2018-06-28T11:49:30.595Z,44.80
2018-06-28T11:52:28.222Z,44.40
2018-06-28T11:55:25.436Z,44.30
2018-06-28T11:58:23.159Z,44.80
2018-06-28T12:01:22.151Z,44.20
2018-06-28T12:04:19.889Z,44.40
2018-06-28T12:07:17.436Z,44.30
2018-06-28T12:10:16.031Z,43.80
2018-06-28T12:13:13.804Z,43.80
2018-06-28T12:16:11.606Z,43.70
2018-06-28T12:19:09.468Z,43.20
2018-06-28T12:22:07.324Z,42.50
2018-06-28T12:25:06.416Z,42.60
2018-06-28T12:28:04.130Z,42.90
2018-06-28T12:31:01.844Z,42.80
2018-06-28T12:33:59.879Z,42.30
2018-06-28T12:36:57.617Z,42.30
2018-06-28T12:39:55.322Z,42.30
2018-06-28T12:42:53.082Z,42.70
2018-06-28T12:45:59.824Z,42.30
2018-06-28T12:48:57.823Z,41.90
2018-06-28T12:52:07.582Z,42.40
2018-06-28T12:55:05.474Z,43.10
2018-06-28T12:58:04.235Z,43.80
2018-06-28T13:20:22.236Z,44.60
2018-06-28T13:23:20.074Z,45.00
2018-06-28T13:26:19.147Z,45.80
2018-06-28T13:29:16.752Z,46.30
2018-06-28T13:32:14.722Z,46.30
2018-06-28T13:35:12.362Z,45.70
2018-06-28T13:38:10.155Z,46.80
2018-06-28T13:41:07.826Z,46.00
2018-06-28T13:44:06.446Z,46.50
2018-06-28T13:47:04.335Z,46.80
2018-06-28T13:50:01.880Z,48.40
2018-06-28T13:52:59.893Z,48.90
2018-06-28T13:55:57.820Z,48.80
2018-06-28T13:58:55.529Z,48.40
2018-06-28T14:01:53.147Z,48.00
2018-06-28T14:04:51.153Z,46.90
2018-06-28T14:07:48.957Z,46.20
2018-06-28T14:10:46.604Z,46.40
2018-06-28T14:13:44.757Z,46.60
2018-06-28T14:16:42.532Z,47.00
2018-06-28T14:19:40.523Z,46.90
2018-06-28T14:22:38.310Z,45.80
2018-06-28T14:25:35.932Z,45.60
2018-06-28T14:28:33.800Z,45.80
2018-06-28T14:31:31.708Z,44.90
2018-06-28T14:34:30.346Z,45.30
2018-06-28T14:37:29.138Z,45.10
2018-06-28T14:40:28.073Z,44.50
2018-06-28T14:43:26.349Z,44.40
2018-06-28T14:46:23.955Z,45.40
2018-06-28T14:49:22.946Z,46.10
2018-06-28T14:52:20.900Z,46.60
2018-06-28T14:55:19.536Z,46.40
2018-06-28T14:58:17.249Z,46.00
2018-06-28T15:04:04.796Z,46.80
2018-06-28T15:07:02.560Z,46.40
2018-06-28T15:10:00.170Z,46.40
2018-06-28T15:12:58.281Z,46.40
2018-06-28T15:15:55.947Z,46.10
2018-06-28T15:18:53.711Z,46.20
2018-06-28T15:21:51.549Z,47.00
2018-06-28T15:24:49.338Z,47.20
2018-06-28T15:30:37.050Z,47.50
2018-06-28T15:33:34.955Z,48.30
2018-06-28T15:36:32.713Z,48.70
2018-06-28T15:39:30.546Z,49.60
2018-06-28T15:42:28.345Z,49.80
2018-06-28T15:45:26.303Z,49.90
2018-06-28T15:48:24.085Z,50.10
2018-06-28T15:51:22.859Z,50.10
2018-06-28T15:54:20.763Z,50.50
2018-06-28T15:57:18.460Z,50.70
2018-06-28T16:00:16.130Z,50.90
2018-06-28T16:03:13.951Z,51.30
2018-06-28T16:06:11.596Z,50.80
2018-06-28T16:09:09.514Z,51.00
2018-06-28T16:12:07.071Z,50.90
2018-06-28T16:15:05.340Z,50.90
2018-06-28T16:18:04.802Z,51.20
2018-06-28T16:21:02.018Z,51.50
2018-06-28T16:24:00.064Z,51.40
2018-06-28T16:26:57.866Z,51.90
2018-06-28T16:29:55.278Z,52.20
2018-06-28T16:32:54.304Z,52.60
2018-06-28T16:35:52.091Z,52.90
2018-06-28T16:38:49.789Z,53.30
2018-06-28T16:41:47.605Z,53.40
2018-06-28T16:44:45.455Z,53.50
2018-06-28T16:47:43.162Z,53.50
2018-06-28T16:50:41.017Z,53.70
2018-06-28T16:53:39.062Z,53.90
2018-06-28T16:56:36.958Z,54.10
2018-06-28T16:59:34.897Z,54.70
2018-06-28T17:02:32.468Z,54.90
2018-06-28T17:05:30.097Z,55.30
2018-06-28T17:08:27.971Z,55.10
2018-06-28T17:11:25.598Z,55.00
2018-06-28T17:14:23.403Z,55.00
2018-06-28T17:17:21.356Z,54.30
2018-06-28T17:20:19.369Z,54.50
2018-06-28T17:23:18.447Z,54.40
2018-06-28T17:26:16.031Z,54.90
2018-06-28T17:29:13.947Z,55.40
2018-06-28T17:32:11.674Z,55.70
2018-06-28T17:35:09.327Z,56.20
2018-06-28T17:38:07.156Z,56.50
2018-06-28T17:41:04.778Z,57.10
2018-06-28T17:44:02.604Z,57.40
2018-06-28T17:47:00.447Z,57.90
2018-06-28T17:49:58.328Z,58.20
2018-06-28T17:52:57.071Z,58.20
2018-06-28T17:55:54.503Z,58.10
2018-06-28T17:58:52.365Z,58.20
2018-06-28T18:01:50.379Z,58.70
2018-06-28T18:04:48.140Z,58.90
2018-06-28T18:07:47.540Z,59.00
2018-06-28T18:10:45.766Z,59.50
2018-06-28T18:13:43.473Z,61.20
2018-06-28T18:16:41.299Z,60.50
2018-06-28T18:19:39.015Z,60.70
2018-06-28T18:22:40.604Z,61.20
2018-06-28T18:25:38.355Z,61.60
2018-06-28T18:28:35.969Z,62.20
2018-06-28T18:31:34.210Z,62.50
2018-06-28T18:34:31.907Z,63.00
2018-06-28T18:40:19.129Z,64.00
2018-06-28T18:43:16.717Z,64.40
2018-06-28T18:46:15.591Z,64.70
2018-06-28T18:49:13.405Z,64.30
2018-06-28T18:52:11.175Z,64.70
2018-06-28T18:55:08.643Z,65.40
2018-06-28T18:58:06.430Z,65.20
2018-06-28T19:01:04.050Z,65.80
2018-06-28T19:04:01.783Z,65.80
2018-06-28T19:06:59.555Z,66.20
2018-06-28T19:10:03.363Z,66.60
2018-06-28T19:13:01.195Z,67.00
2018-06-28T19:32:41.385Z,66.70
2018-06-28T19:38:28.446Z,62.30
2018-06-28T19:41:32.172Z,61.90
2018-06-28T19:44:29.549Z,61.50
2018-06-28T19:47:27.384Z,67.70
2018-06-28T19:50:31.056Z,74.20
2018-06-28T19:53:28.338Z,75.90
2018-06-28T19:56:25.642Z,79.20
2018-06-28T19:59:23.246Z,81.50
2018-06-28T20:02:26.953Z,83.10
2018-06-28T20:05:24.336Z,85.70
2018-06-28T20:08:21.627Z,90.60
2018-06-28T20:11:19.679Z,92.30
2018-06-28T20:14:23.599Z,94.20
2018-06-28T20:17:27.289Z,95.60
2018-06-28T20:20:25.767Z,97.80
2018-06-28T20:23:23.737Z,98.40
2018-06-28T20:26:27.098Z,99.40
2018-06-28T20:29:31.123Z,99.90
2018-06-28T20:32:35.269Z,99.90
2018-06-28T20:35:32.874Z,99.90
2018-06-28T20:38:30.572Z,99.90
2018-06-28T20:41:28.661Z,99.90
2018-06-28T20:44:26.610Z,99.90
2018-06-28T20:47:24.471Z,99.90
2018-06-28T20:50:23.530Z,99.90
2018-06-28T20:53:21.789Z,99.90
2018-06-28T20:56:20.150Z,99.90
2018-06-28T20:59:18.284Z,99.90
2018-06-28T21:02:16.380Z,99.90
2018-06-28T21:05:14.513Z,99.90
2018-06-28T21:08:11.644Z,99.90
2018-06-28T21:11:10.690Z,99.90
2018-06-28T21:14:08.883Z,99.90
2018-06-28T21:17:06.973Z,99.90
2018-06-28T21:20:04.155Z,99.90
2018-06-28T21:23:02.210Z,99.90
2018-06-28T21:26:00.257Z,99.90
2018-06-28T21:31:48.407Z,99.90
2018-06-28T21:34:46.563Z,99.90
2018-06-28T21:37:44.404Z,99.90
2018-06-28T21:40:42.366Z,99.90
2018-06-28T21:43:40.289Z,99.90
2018-06-28T21:46:38.411Z,99.90
2018-06-28T21:49:36.113Z,99.90
2018-06-28T21:52:34.344Z,99.90
2018-06-28T21:55:32.419Z,99.90
2018-06-28T21:58:30.443Z,99.90
2018-06-28T22:01:28.385Z,99.90
2018-06-28T22:04:25.873Z,99.90
2018-06-28T22:07:23.151Z,99.90
2018-06-28T22:10:22.044Z,99.90
2018-06-28T22:13:19.300Z,99.90
2018-06-28T22:19:07.291Z,99.90
2018-06-28T22:22:05.512Z,99.90
2018-06-28T22:25:03.654Z,99.90
2018-06-28T22:28:01.612Z,99.90
2018-06-28T22:30:59.829Z,99.90
2018-06-28T22:33:57.629Z,99.90
2018-06-28T22:36:55.571Z,99.90
2018-06-28T22:39:53.710Z,99.90
2018-06-28T22:42:51.678Z,99.90
2018-06-28T22:45:49.471Z,99.90
2018-06-28T22:48:48.348Z,99.90
2018-06-28T22:51:46.220Z,99.90
2018-06-28T22:54:44.234Z,99.90
2018-06-28T22:57:42.027Z,99.90
2018-06-28T23:00:46.968Z,99.90
2018-06-28T23:03:44.735Z,99.90
2018-06-28T23:06:42.815Z,99.90
2018-06-28T23:09:40.962Z,99.90
2018-06-28T23:12:38.771Z,99.90
2018-06-28T23:15:36.748Z,99.90
2018-06-28T23:18:34.631Z,99.90
2018-06-28T23:21:32.687Z,99.90
2018-06-28T23:27:21.236Z,99.90
2018-06-28T23:30:19.138Z,99.90
2018-06-28T23:33:16.428Z,99.90
2018-06-28T23:36:14.515Z,99.90
2018-06-28T23:39:14.507Z,99.90
2018-06-28T23:42:13.538Z,99.90
2018-06-28T23:45:11.548Z,99.90
2018-06-28T23:48:09.445Z,99.90
2018-06-28T23:51:07.332Z,99.90
2018-06-28T23:54:06.296Z,99.90
2018-06-28T23:59:54.163Z,99.90
